sensor_id;sensor_type;location;lat;lon;timestamp;pressure;altitude;pressure_sealevel;temperature;humidity
50684;BME280;36654;45.042;38.994;2022-10-20T00:02:25;100659.13;;;13.34;92.65
50684;BME280;36654;45.042;38.994;2022-10-20T00:04:50;100652.91;;;13.40;92.90
50684;BME280;36654;45.042;38.994;2022-10-20T00:07:16;100652.00;;;13.42;92.71
50684;BME280;36654;45.042;38.994;2022-10-20T00:09:42;100662.66;;;13.48;92.66
50684;BME280;36654;45.042;38.994;2022-10-20T00:12:07;100673.31;;;13.51;92.67
50684;BME280;36654;45.042;38.994;2022-10-20T00:14:33;100664.41;;;13.52;92.23
50684;BME280;36654;45.042;38.994;2022-10-20T00:16:58;100671.50;;;13.56;92.19
50684;BME280;36654;45.042;38.994;2022-10-20T00:19:26;100672.41;;;13.57;91.93
50684;BME280;36654;45.042;38.994;2022-10-20T00:21:52;100671.50;;;13.59;91.83
50684;BME280;36654;45.042;38.994;2022-10-20T00:24:18;100680.41;;;13.58;91.78
50684;BME280;36654;45.042;38.994;2022-10-20T00:26:46;100668.84;;;13.59;91.95
50684;BME280;36654;45.042;38.994;2022-10-20T00:29:11;100673.28;;;13.61;91.83
50684;BME280;36654;45.042;38.994;2022-10-20T00:31:37;100658.19;;;13.61;91.80
50684;BME280;36654;45.042;38.994;2022-10-20T00:34:03;100647.56;;;13.53;91.47
50684;BME280;36654;45.042;38.994;2022-10-20T00:36:28;100592.59;;;13.31;91.62
50684;BME280;36654;45.042;38.994;2022-10-20T00:38:59;100648.41;;;13.65;91.52
50684;BME280;36654;45.042;38.994;2022-10-20T00:41:26;100634.22;;;13.59;91.52
50684;BME280;36654;45.042;38.994;2022-10-20T00:43:54;100632.44;;;13.62;91.61
50684;BME280;36654;45.042;38.994;2022-10-20T00:46:32;100595.22;;;13.43;91.25
50684;BME280;36654;45.042;38.994;2022-10-20T00:49:07;100648.41;;;13.71;91.15
50684;BME280;36654;45.042;38.994;2022-10-20T00:51:36;100640.41;;;13.68;91.12
50684;BME280;36654;45.042;38.994;2022-10-20T00:54:09;100638.63;;;13.70;91.20
50684;BME280;36654;45.042;38.994;2022-10-20T00:56:40;100647.50;;;13.72;91.33
50684;BME280;36654;45.042;38.994;2022-10-20T00:59:07;100636.84;;;13.73;91.33
50684;BME280;36654;45.042;38.994;2022-10-20T01:01:33;100616.47;;;13.62;91.16
50684;BME280;36654;45.042;38.994;2022-10-20T01:03:59;100614.69;;;13.64;91.39
50684;BME280;36654;45.042;38.994;2022-10-20T01:06:25;100636.81;;;13.75;91.13
50684;BME280;36654;45.042;38.994;2022-10-20T01:08:52;100639.50;;;13.75;91.26
50684;BME280;36654;45.042;38.994;2022-10-20T01:11:28;100640.41;;;13.75;91.28
50684;BME280;36654;45.042;38.994;2022-10-20T01:27:57;100639.50;;;13.75;91.10
50684;BME280;36654;45.042;38.994;2022-10-20T01:30:26;100627.06;;;13.74;91.21
50684;BME280;36654;45.042;38.994;2022-10-20T01:36:46;100629.75;;;13.74;91.23
50684;BME280;36654;45.042;38.994;2022-10-20T01:38:50;100629.75;;;13.74;91.13
50684;BME280;36654;45.042;38.994;2022-10-20T01:41:38;100623.50;;;13.75;90.95
50684;BME280;36654;45.042;38.994;2022-10-20T01:44:11;100623.50;;;13.75;90.90
50684;BME280;36654;45.042;38.994;2022-10-20T01:46:40;100632.38;;;13.77;90.56
50684;BME280;36654;45.042;38.994;2022-10-20T01:49:07;100623.50;;;13.75;90.32
50684;BME280;36654;45.042;38.994;2022-10-20T01:51:33;100618.19;;;13.75;90.10
50684;BME280;36654;45.042;38.994;2022-10-20T01:53:59;100634.16;;;13.75;90.03
50684;BME280;36654;45.042;38.994;2022-10-20T01:56:44;100634.16;;;13.75;89.53
50684;BME280;36654;45.042;38.994;2022-10-20T01:59:36;100631.50;;;13.70;89.19
50684;BME280;36654;45.042;38.994;2022-10-20T02:07:52;100643.94;;;13.70;87.93
50684;BME280;36654;45.042;38.994;2022-10-20T02:10:26;100636.84;;;13.67;87.49
50684;BME280;36654;45.042;38.994;2022-10-20T02:12:57;100654.63;;;13.64;86.71
50684;BME280;36654;45.042;38.994;2022-10-20T02:15:26;100636.91;;;13.58;86.22
50684;BME280;36654;45.042;38.994;2022-10-20T02:17:58;100645.75;;;13.62;85.69
50684;BME280;36654;45.042;38.994;2022-10-20T02:20:26;100627.09;;;13.62;85.42
50684;BME280;36654;45.042;38.994;2022-10-20T02:22:53;100625.34;;;13.54;85.00
50684;BME280;36654;45.042;38.994;2022-10-20T02:25:20;100636.88;;;13.64;84.50
50684;BME280;36654;45.042;38.994;2022-10-20T02:27:47;100643.06;;;13.65;84.28
50684;BME280;36654;45.042;38.994;2022-10-20T02:30:16;100632.41;;;13.65;84.07
50684;BME280;36654;45.042;38.994;2022-10-20T02:32:43;100627.97;;;13.65;83.81
50684;BME280;36654;45.042;38.994;2022-10-20T02:35:17;100643.06;;;13.65;83.62
50684;BME280;36654;45.042;38.994;2022-10-20T02:37:43;100640.44;;;13.63;83.56
50684;BME280;36654;45.042;38.994;2022-10-20T02:40:09;100643.09;;;13.66;83.27
50684;BME280;36654;45.042;38.994;2022-10-20T02:42:35;100640.41;;;13.68;83.27
50684;BME280;36654;45.042;38.994;2022-10-20T02:45:02;100637.75;;;13.65;83.08
50684;BME280;36654;45.042;38.994;2022-10-20T02:47:28;100643.06;;;13.65;83.24
50684;BME280;36654;45.042;38.994;2022-10-20T02:49:53;100644.88;;;13.59;83.16
50684;BME280;36654;45.042;38.994;2022-10-20T02:52:19;100644.88;;;13.61;83.46
50684;BME280;36654;45.042;38.994;2022-10-20T02:54:45;100635.13;;;13.54;83.49
50684;BME280;36654;45.042;38.994;2022-10-20T02:57:10;100648.41;;;13.62;83.66
50684;BME280;36654;45.042;38.994;2022-10-20T02:59:36;100645.75;;;13.62;83.88
50684;BME280;36654;45.042;38.994;2022-10-20T03:02:02;100636.00;;;13.64;83.54
50684;BME280;36654;45.042;38.994;2022-10-20T03:04:28;100633.31;;;13.64;83.63
50684;BME280;36654;45.042;38.994;2022-10-20T03:06:53;100606.72;;;13.50;83.38
50684;BME280;36654;45.042;38.994;2022-10-20T03:09:19;100621.78;;;13.62;83.45
50684;BME280;36654;45.042;38.994;2022-10-20T03:11:45;100625.34;;;13.57;83.22
50684;BME280;36654;45.042;38.994;2022-10-20T03:14:11;100627.13;;;13.58;83.41
50684;BME280;36654;45.042;38.994;2022-10-20T03:16:36;100619.13;;;13.57;83.54
50684;BME280;36654;45.042;38.994;2022-10-20T03:19:02;100623.59;;;13.53;83.30
50684;BME280;36654;45.042;38.994;2022-10-20T03:21:28;100630.69;;;13.54;83.23
50684;BME280;36654;45.042;38.994;2022-10-20T03:23:54;100614.72;;;13.48;83.20
50684;BME280;36654;45.042;38.994;2022-10-20T03:26:20;100633.34;;;13.54;83.16
50684;BME280;36654;45.042;38.994;2022-10-20T03:28:45;100623.59;;;13.53;83.14
50684;BME280;36654;45.042;38.994;2022-10-20T03:31:11;100619.16;;;13.54;82.95
50684;BME280;36654;45.042;38.994;2022-10-20T03:33:37;100557.06;;;13.15;83.00
50684;BME280;36654;45.042;38.994;2022-10-20T03:36:03;100555.31;;;13.15;82.79
50684;BME280;36654;45.042;38.994;2022-10-20T03:38:29;100611.19;;;13.43;83.07
50684;BME280;36654;45.042;38.994;2022-10-20T03:40:54;100617.38;;;13.42;83.29
50684;BME280;36654;45.042;38.994;2022-10-20T03:43:20;100624.50;;;13.46;83.36
50684;BME280;36654;45.042;38.994;2022-10-20T03:45:45;100612.09;;;13.39;83.50
50684;BME280;36654;45.042;38.994;2022-10-20T03:48:11;100622.69;;;13.45;83.64
50684;BME280;36654;45.042;38.994;2022-10-20T03:50:38;100545.56;;;13.02;83.48
50684;BME280;36654;45.042;38.994;2022-10-20T03:53:04;100612.97;;;13.41;83.80
50684;BME280;36654;45.042;38.994;2022-10-20T03:55:29;100628.06;;;13.41;83.66
50684;BME280;36654;45.042;38.994;2022-10-20T03:57:55;100622.75;;;13.41;83.81
50684;BME280;36654;45.042;38.994;2022-10-20T04:00:21;100621.81;;;13.40;84.00
50684;BME280;36654;45.042;38.994;2022-10-20T04:02:47;100611.22;;;13.35;83.93
50684;BME280;36654;45.042;38.994;2022-10-20T04:05:15;100617.41;;;13.39;83.82
50684;BME280;36654;45.042;38.994;2022-10-20T04:07:41;100612.06;;;13.42;83.79
50684;BME280;36654;45.042;38.994;2022-10-20T04:10:08;100612.06;;;13.42;83.89
50684;BME280;36654;45.042;38.994;2022-10-20T04:12:34;100617.41;;;13.41;83.51
50684;BME280;36654;45.042;38.994;2022-10-20T04:15:00;100561.53;;;13.05;83.39
50684;BME280;36654;45.042;38.994;2022-10-20T04:17:26;100621.81;;;13.40;83.41
50684;BME280;36654;45.042;38.994;2022-10-20T04:19:52;100627.16;;;13.42;83.21
50684;BME280;36654;45.042;38.994;2022-10-20T04:22:17;100612.97;;;13.35;83.17
50684;BME280;36654;45.042;38.994;2022-10-20T04:24:43;100561.53;;;13.10;83.11
50684;BME280;36654;45.042;38.994;2022-10-20T04:27:09;100619.16;;;13.46;82.66
50684;BME280;36654;45.042;38.994;2022-10-20T04:29:35;100623.59;;;13.47;82.75
50684;BME280;36654;45.042;38.994;2022-10-20T04:32:00;100604.09;;;13.39;82.61
50684;BME280;36654;45.042;38.994;2022-10-20T04:34:26;100612.94;;;13.47;82.50
50684;BME280;36654;45.042;38.994;2022-10-20T04:36:51;100608.50;;;13.46;82.30
50684;BME280;36654;45.042;38.994;2022-10-20T04:39:17;100620.94;;;13.53;81.86
50684;BME280;36654;45.042;38.994;2022-10-20T04:41:43;100610.25;;;13.55;82.02
50684;BME280;36654;45.042;38.994;2022-10-20T04:44:08;100616.50;;;13.55;82.02
50684;BME280;36654;45.042;38.994;2022-10-20T04:46:34;100608.47;;;13.60;81.68
50684;BME280;36654;45.042;38.994;2022-10-20T04:48:59;100612.88;;;13.63;81.20
50684;BME280;36654;45.042;38.994;2022-10-20T04:51:25;100580.97;;;13.47;81.16
50684;BME280;36654;45.042;38.994;2022-10-20T04:53:51;100625.28;;;13.76;80.55
50684;BME280;36654;45.042;38.994;2022-10-20T04:56:18;100613.69;;;13.85;80.12
50684;BME280;36654;45.042;38.994;2022-10-20T04:58:48;100603.94;;;13.87;79.55
50684;BME280;36654;45.042;38.994;2022-10-20T05:01:13;100611.94;;;13.88;79.43
50684;BME280;36654;45.042;38.994;2022-10-20T05:03:39;100625.22;;;13.94;79.21
50684;BME280;36654;45.042;38.994;2022-10-20T05:06:14;100614.53;;;14.00;79.19
50684;BME280;36654;45.042;38.994;2022-10-20T05:08:42;100589.66;;;13.98;79.06
50684;BME280;36654;45.042;38.994;2022-10-20T05:11:09;100596.75;;;14.06;78.54
50684;BME280;36654;45.042;38.994;2022-10-20T05:13:35;100585.16;;;14.05;78.52
50684;BME280;36654;45.042;38.994;2022-10-20T05:16:00;100605.53;;;14.23;78.43
50684;BME280;36654;45.042;38.994;2022-10-20T05:18:26;100601.09;;;14.23;78.14
50684;BME280;36654;45.042;38.994;2022-10-20T05:20:52;100603.72;;;14.25;78.09
50684;BME280;36654;45.042;38.994;2022-10-20T05:23:18;100609.06;;;14.28;77.64
50684;BME280;36654;45.042;38.994;2022-10-20T05:25:43;100604.63;;;14.24;77.34
50684;BME280;36654;45.042;38.994;2022-10-20T05:28:09;100564.78;;;14.01;76.97
50684;BME280;36654;45.042;38.994;2022-10-20T05:30:35;100606.38;;;14.27;76.65
50684;BME280;36654;45.042;38.994;2022-10-20T05:33:02;100570.94;;;14.09;76.64
50684;BME280;36654;45.042;38.994;2022-10-20T05:35:28;100617.84;;;14.39;76.66
50684;BME280;36654;45.042;38.994;2022-10-20T05:37:54;100623.19;;;14.39;76.68
50684;BME280;36654;45.042;38.994;2022-10-20T05:40:20;100617.84;;;14.39;76.75
50684;BME280;36654;45.042;38.994;2022-10-20T05:42:46;100626.75;;;14.38;76.81
50684;BME280;36654;45.042;38.994;2022-10-20T05:45:11;100637.41;;;14.40;76.77
50684;BME280;36654;45.042;38.994;2022-10-20T05:47:37;100591.38;;;14.09;76.76
50684;BME280;36654;45.042;38.994;2022-10-20T05:50:03;100596.72;;;14.09;76.91
50684;BME280;36654;45.042;38.994;2022-10-20T05:52:29;100640.09;;;14.37;76.96
50684;BME280;36654;45.042;38.994;2022-10-20T05:54:54;100623.25;;;14.27;77.22
50684;BME280;36654;45.042;38.994;2022-10-20T05:57:20;100633.88;;;14.38;77.01
50684;BME280;36654;45.042;38.994;2022-10-20T05:59:46;100642.78;;;14.38;76.91
50684;BME280;36654;45.042;38.994;2022-10-20T06:02:12;100620.56;;;14.32;77.26
50684;BME280;36654;45.042;38.994;2022-10-20T06:04:37;100647.16;;;14.44;77.01
50684;BME280;36654;45.042;38.994;2022-10-20T06:07:03;100644.44;;;14.52;77.07
50684;BME280;36654;45.042;38.994;2022-10-20T06:09:30;100655.09;;;14.61;76.95
50684;BME280;36654;45.042;38.994;2022-10-20T06:11:57;100647.91;;;14.75;76.73
50684;BME280;36654;45.042;38.994;2022-10-20T06:14:24;100649.53;;;14.90;76.33
50684;BME280;36654;45.042;38.994;2022-10-20T06:16:54;100653.03;;;15.00;75.83
50684;BME280;36654;45.042;38.994;2022-10-20T06:19:20;100637.91;;;14.97;75.43
50684;BME280;36654;45.042;38.994;2022-10-20T06:21:46;100641.41;;;15.07;75.28
50684;BME280;36654;45.042;38.994;2022-10-20T06:24:12;100660.13;;;15.04;75.22
50684;BME280;36654;45.042;38.994;2022-10-20T06:26:38;100661.03;;;15.01;75.09
50684;BME280;36654;45.042;38.994;2022-10-20T06:29:11;100660.19;;;14.98;75.00
50684;BME280;36654;45.042;38.994;2022-10-20T06:31:48;100643.34;;;14.88;74.90
50684;BME280;36654;45.042;38.994;2022-10-20T06:34:17;100648.59;;;14.99;74.27
50684;BME280;36654;45.042;38.994;2022-10-20T06:36:43;100660.13;;;15.04;73.86
50684;BME280;36654;45.042;38.994;2022-10-20T06:39:12;100673.53;;;14.96;73.30
50684;BME280;36654;45.042;38.994;2022-10-20T06:41:38;100678.88;;;14.98;73.32
50684;BME280;36654;45.042;38.994;2022-10-20T06:44:04;100654.84;;;14.95;73.54
50684;BME280;36654;45.042;38.994;2022-10-20T06:46:33;100667.22;;;15.08;73.34
50684;BME280;36654;45.042;38.994;2022-10-20T06:49:00;100670.72;;;15.13;73.50
50684;BME280;36654;45.042;38.994;2022-10-20T06:51:27;100661.78;;;15.19;72.92
50684;BME280;36654;45.042;38.994;2022-10-20T06:53:53;100670.66;;;15.19;73.37
50684;BME280;36654;45.042;38.994;2022-10-20T06:56:24;100670.69;;;15.16;73.33
50684;BME280;36654;45.042;38.994;2022-10-20T06:58:54;100673.47;;;15.05;73.97
50684;BME280;36654;45.042;38.994;2022-10-20T07:01:22;100675.28;;;14.99;74.33
50684;BME280;36654;45.042;38.994;2022-10-20T07:03:49;100678.00;;;14.89;74.46
50684;BME280;36654;45.042;38.994;2022-10-20T07:06:18;100672.72;;;14.85;74.94
50684;BME280;36654;45.042;38.994;2022-10-20T07:08:45;100662.97;;;14.81;75.09
50684;BME280;36654;45.042;38.994;2022-10-20T07:11:16;100684.34;;;14.78;75.58
50684;BME280;36654;45.042;38.994;2022-10-20T07:13:43;100688.81;;;14.74;75.66
50684;BME280;36654;45.042;38.994;2022-10-20T07:16:12;100694.16;;;14.71;75.98
50684;BME280;36654;45.042;38.994;2022-10-20T07:18:38;100699.50;;;14.71;76.41
50684;BME280;36654;45.042;38.994;2022-10-20T07:21:07;100701.28;;;14.75;76.60
50684;BME280;36654;45.042;38.994;2022-10-20T07:23:34;100687.09;;;14.64;76.64
50684;BME280;36654;45.042;38.994;2022-10-20T07:26:06;100609.13;;;14.16;76.56
50684;BME280;36654;45.042;38.994;2022-10-20T07:28:34;100701.28;;;14.69;76.83
50684;BME280;36654;45.042;38.994;2022-10-20T07:31:04;100711.13;;;14.50;77.11
50684;BME280;36654;45.042;38.994;2022-10-20T07:33:31;100722.72;;;14.54;77.62
50684;BME280;36654;45.042;38.994;2022-10-20T07:35:57;100706.81;;;14.24;78.27
50684;BME280;36654;45.042;38.994;2022-10-20T07:38:23;100715.75;;;14.19;78.94
50684;BME280;36654;45.042;38.994;2022-10-20T07:40:49;100677.66;;;13.86;79.34
50684;BME280;36654;45.042;38.994;2022-10-20T07:43:14;100733.56;;;14.05;79.85
50684;BME280;36654;45.042;38.994;2022-10-20T07:45:40;100722.94;;;13.89;79.84
50684;BME280;36654;45.042;38.994;2022-10-20T07:48:06;100720.28;;;13.88;79.70
50684;BME280;36654;45.042;38.994;2022-10-20T07:50:35;100724.69;;;13.99;79.33
50684;BME280;36654;45.042;38.994;2022-10-20T07:53:02;100733.56;;;14.01;78.94
50684;BME280;36654;45.042;38.994;2022-10-20T07:55:28;100738.88;;;14.11;78.19
50684;BME280;36654;45.042;38.994;2022-10-20T07:57:54;100719.34;;;14.04;77.54
50684;BME280;36654;45.042;38.994;2022-10-20T08:00:19;100729.97;;;14.12;77.12
50684;BME280;36654;45.042;38.994;2022-10-20T08:02:45;100722.88;;;14.14;76.73
50684;BME280;36654;45.042;38.994;2022-10-20T08:05:11;100730.81;;;14.24;76.29
50684;BME280;36654;45.042;38.994;2022-10-20T08:07:37;100736.16;;;14.31;75.75
50684;BME280;36654;45.042;38.994;2022-10-20T08:10:04;100730.78;;;14.34;75.20
50684;BME280;36654;45.042;38.994;2022-10-20T08:12:30;100737.00;;;14.34;74.64
50684;BME280;36654;45.042;38.994;2022-10-20T08:14:56;100716.59;;;14.29;73.85
50684;BME280;36654;45.042;38.994;2022-10-20T08:17:21;100713.91;;;14.33;72.14
50684;BME280;36654;45.042;38.994;2022-10-20T08:19:47;100704.97;;;14.37;71.63
50684;BME280;36654;45.042;38.994;2022-10-20T08:22:15;100726.28;;;14.53;70.81
50684;BME280;36654;45.042;38.994;2022-10-20T08:24:43;100712.91;;;14.62;69.69
50684;BME280;36654;45.042;38.994;2022-10-20T08:27:09;100708.38;;;14.70;69.37
50684;BME280;36654;45.042;38.994;2022-10-20T08:29:35;100717.28;;;14.74;69.22
50684;BME280;36654;45.042;38.994;2022-10-20T08:32:02;100716.38;;;14.76;68.95
50684;BME280;36654;45.042;38.994;2022-10-20T08:34:27;100695.94;;;14.74;68.79
50684;BME280;36654;45.042;38.994;2022-10-20T08:36:53;100707.41;;;14.85;68.28
50684;BME280;36654;45.042;38.994;2022-10-20T08:39:18;100713.56;;;14.95;67.74
50684;BME280;36654;45.042;38.994;2022-10-20T08:41:46;100714.41;;;15.01;67.16
50684;BME280;36654;45.042;38.994;2022-10-20T08:44:22;100717.00;;;15.12;65.10
50684;BME280;36654;45.042;38.994;2022-10-20T08:46:49;100700.97;;;15.15;63.33
50684;BME280;36654;45.042;38.994;2022-10-20T08:49:24;100689.31;;;15.25;63.31
50684;BME280;36654;45.042;38.994;2022-10-20T08:51:50;100707.75;;;15.50;61.66
50684;BME280;36654;45.042;38.994;2022-10-20T08:54:16;100714.84;;;15.56;61.39
50684;BME280;36654;45.042;38.994;2022-10-20T08:56:43;100723.69;;;15.62;60.74
50684;BME280;36654;45.042;38.994;2022-10-20T08:59:34;100719.28;;;15.57;60.24
50684;BME280;36654;45.042;38.994;2022-10-20T09:02:02;100707.75;;;15.53;60.31
50684;BME280;36654;45.042;38.994;2022-10-20T09:04:41;100724.56;;;15.64;59.89
50684;BME280;36654;45.042;38.994;2022-10-20T09:07:23;100715.66;;;15.62;59.37
50684;BME280;36654;45.042;38.994;2022-10-20T09:09:49;100727.19;;;15.67;57.94
50684;BME280;36654;45.042;38.994;2022-10-20T09:12:16;100714.81;;;15.60;57.93
50684;BME280;36654;45.042;38.994;2022-10-20T09:14:42;100700.66;;;15.49;57.71
50684;BME280;36654;45.042;38.994;2022-10-20T09:17:16;100718.41;;;15.54;57.59
50684;BME280;36654;45.042;38.994;2022-10-20T09:19:54;100707.88;;;15.41;56.88
50684;BME280;36654;45.042;38.994;2022-10-20T09:22:23;100666.88;;;15.42;56.12
50684;BME280;36654;45.042;38.994;2022-10-20T09:24:51;100673.78;;;15.64;55.98
50684;BME280;36654;45.042;38.994;2022-10-20T09:27:34;100709.34;;;15.76;56.42
50684;BME280;36654;45.042;38.994;2022-10-20T09:32:40;100695.97;;;15.76;56.81
50684;BME280;36654;45.042;38.994;2022-10-20T09:35:29;100676.44;;;15.66;56.07
50684;BME280;36654;45.042;38.994;2022-10-20T09:43:38;100649.28;;;16.06;53.96
50684;BME280;36654;45.042;38.994;2022-10-20T09:46:07;100688.19;;;16.30;53.46
50684;BME280;36654;45.042;38.994;2022-10-20T09:48:36;100681.03;;;16.33;52.85
50684;BME280;36654;45.042;38.994;2022-10-20T09:51:04;100676.56;;;16.32;52.80
50684;BME280;36654;45.042;38.994;2022-10-20T09:53:34;100664.00;;;16.39;52.42
50684;BME280;36654;45.042;38.994;2022-10-20T09:56:03;100679.94;;;16.48;50.79
50684;BME280;36654;45.042;38.994;2022-10-20T09:58:31;100683.50;;;16.47;50.20
50684;BME280;36654;45.042;38.994;2022-10-20T10:01:01;100673.53;;;16.60;49.74
50684;BME280;36654;45.042;38.994;2022-10-20T10:03:28;100659.16;;;16.66;49.53
50684;BME280;36654;45.042;38.994;2022-10-20T10:06:28;100661.78;;;16.67;49.92
50684;BME280;36654;45.042;38.994;2022-10-20T10:08:56;100671.66;;;16.65;50.28
50684;BME280;36654;45.042;38.994;2022-10-20T10:11:32;100599.91;;;16.33;50.31
50684;BME280;36654;45.042;38.994;2022-10-20T10:13:59;100659.09;;;16.69;49.75
50684;BME280;36654;45.042;38.994;2022-10-20T10:16:25;100652.88;;;16.67;48.79
50684;BME280;36654;45.042;38.994;2022-10-20T10:18:59;100665.19;;;16.83;48.43
50684;BME280;36654;45.042;38.994;2022-10-20T10:21:28;100665.94;;;16.90;46.48
50684;BME280;36654;45.042;38.994;2022-10-20T10:24:02;100640.16;;;16.86;46.57
50684;BME280;36654;45.042;38.994;2022-10-20T10:26:45;100653.41;;;16.93;47.00
50684;BME280;36654;45.042;38.994;2022-10-20T10:29:35;100670.59;;;16.80;46.85
50684;BME280;36654;45.042;38.994;2022-10-20T10:32:27;100668.81;;;16.76;46.70
50684;BME280;36654;45.042;38.994;2022-10-20T10:37:42;100660.63;;;16.88;47.39
50684;BME280;36654;45.042;38.994;2022-10-20T10:40:16;100666.00;;;16.87;46.92
50684;BME280;36654;45.042;38.994;2022-10-20T10:51:02;100651.91;;;16.72;45.18
50684;BME280;36654;45.042;38.994;2022-10-20T10:56:42;100656.50;;;16.66;45.54
50684;BME280;36654;45.042;38.994;2022-10-20T10:59:32;100661.72;;;16.72;45.13
50684;BME280;36654;45.042;38.994;2022-10-20T11:02:03;100657.28;;;16.71;45.02
50684;BME280;36654;45.042;38.994;2022-10-20T11:05:03;100654.50;;;16.77;45.27
50684;BME280;36654;45.042;38.994;2022-10-20T11:10:39;100658.63;;;17.01;44.25
50684;BME280;36654;45.042;38.994;2022-10-20T11:24:05;100679.34;;;16.90;44.74
50684;BME280;36654;45.042;38.994;2022-10-20T11:26:34;100647.47;;;16.73;44.98
50684;BME280;36654;45.042;38.994;2022-10-20T11:29:04;100672.44;;;16.72;45.02
50684;BME280;36654;45.042;38.994;2022-10-20T11:34:15;100674.34;;;16.64;46.36
50684;BME280;36654;45.042;38.994;2022-10-20T11:36:48;100703.94;;;16.53;49.18
50684;BME280;36654;45.042;38.994;2022-10-20T11:39:39;100704.06;;;16.45;50.09
50684;BME280;36654;45.042;38.994;2022-10-20T11:42:39;100701.41;;;16.42;51.09
50684;BME280;36654;45.042;38.994;2022-10-20T11:48:09;100718.47;;;16.32;49.97
50684;BME280;36654;45.042;38.994;2022-10-20T11:50:37;100672.38;;;16.10;49.16
50684;BME280;36654;45.042;38.994;2022-10-20T11:53:26;100715.78;;;16.35;48.22
50684;BME280;36654;45.042;38.994;2022-10-20T11:56:12;100694.41;;;16.32;46.43
50684;BME280;36654;45.042;38.994;2022-10-20T11:59:16;100726.59;;;16.24;45.13
50684;BME280;36654;45.042;38.994;2022-10-20T12:02:17;100712.50;;;16.11;43.51
50684;BME280;36654;45.042;38.994;2022-10-20T12:15:51;100730.34;;;16.09;44.45
50684;BME280;36654;45.042;38.994;2022-10-20T12:18:24;100741.97;;;16.07;46.29
50684;BME280;36654;45.042;38.994;2022-10-20T12:20:54;100743.97;;;15.86;47.59
50684;BME280;36654;45.042;38.994;2022-10-20T12:28:59;100692.53;;;15.61;49.55
50684;BME280;36654;45.042;38.994;2022-10-20T12:34:39;100704.13;;;15.57;49.45
50684;BME280;36654;45.042;38.994;2022-10-20T12:37:22;100759.22;;;15.77;50.04
50684;BME280;36654;45.042;38.994;2022-10-20T12:39:54;100754.81;;;15.65;50.48
50684;BME280;36654;45.042;38.994;2022-10-20T12:42:46;100743.25;;;15.66;50.96
50684;BME280;36654;45.042;38.994;2022-10-20T12:47:46;100723.88;;;15.44;50.04
50684;BME280;36654;45.042;38.994;2022-10-20T12:50:33;100754.91;;;15.57;49.54
50684;BME280;36654;45.042;38.994;2022-10-20T12:55:38;100781.66;;;15.56;49.77
50684;BME280;36654;45.042;38.994;2022-10-20T13:05:55;100808.59;;;15.28;50.74
50684;BME280;36654;45.042;38.994;2022-10-20T13:10:52;100790.06;;;14.99;50.99
50684;BME280;36654;45.042;38.994;2022-10-20T13:15:48;100800.78;;;14.89;51.32
50684;BME280;36654;45.042;38.994;2022-10-20T13:18:32;100793.75;;;14.75;51.46
50684;BME280;36654;45.042;38.994;2022-10-20T13:21:21;100805.34;;;14.74;51.22
50684;BME280;36654;45.042;38.994;2022-10-20T13:24:12;100797.31;;;14.74;51.63
50684;BME280;36654;45.042;38.994;2022-10-20T13:32:15;100832.06;;;14.60;50.69
50684;BME280;36654;45.042;38.994;2022-10-20T13:35:15;100824.97;;;14.53;51.10
50684;BME280;36654;45.042;38.994;2022-10-20T13:38:18;100844.56;;;14.41;51.51
50684;BME280;36654;45.042;38.994;2022-10-20T13:41:06;100852.56;;;14.33;52.38
50684;BME280;36654;45.042;38.994;2022-10-20T13:44:22;100861.47;;;14.26;53.59
50684;BME280;36654;45.042;38.994;2022-10-20T13:46:44;100859.72;;;14.16;54.88
50684;BME280;36654;45.042;38.994;2022-10-20T13:51:58;100863.28;;;13.69;59.49
50684;BME280;36654;45.042;38.994;2022-10-20T13:54:31;100902.34;;;13.48;61.46
50684;BME280;36654;45.042;38.994;2022-10-20T13:56:58;100896.00;;;13.20;61.97
50684;BME280;36654;45.042;38.994;2022-10-20T13:59:28;100919.94;;;13.03;62.28
50684;BME280;36654;45.042;38.994;2022-10-20T14:02:35;100902.97;;;12.83;62.23
50684;BME280;36654;45.042;38.994;2022-10-20T14:05:10;100902.00;;;12.70;62.71
50684;BME280;36654;45.042;38.994;2022-10-20T14:07:42;100861.94;;;12.32;63.36
50684;BME280;36654;45.042;38.994;2022-10-20T14:13:00;100930.38;;;12.63;63.50
50684;BME280;36654;45.042;38.994;2022-10-20T14:15:29;100925.91;;;12.62;64.13
50684;BME280;36654;45.042;38.994;2022-10-20T14:17:59;100898.31;;;12.42;64.87
50684;BME280;36654;45.042;38.994;2022-10-20T14:20:25;100925.88;;;12.51;65.20
50684;BME280;36654;45.042;38.994;2022-10-20T14:22:52;100922.25;;;12.45;65.74
50684;BME280;36654;45.042;38.994;2022-10-20T14:25:20;100871.53;;;12.13;65.47
50684;BME280;36654;45.042;38.994;2022-10-20T14:27:46;100885.75;;;12.16;65.34
50684;BME280;36654;45.042;38.994;2022-10-20T14:30:16;100928.47;;;12.41;64.52
50684;BME280;36654;45.042;38.994;2022-10-20T14:32:43;100882.09;;;12.02;64.06
50684;BME280;36654;45.042;38.994;2022-10-20T14:35:22;100949.69;;;12.33;63.04
50684;BME280;36654;45.042;38.994;2022-10-20T14:38:00;100954.13;;;12.40;63.18
50684;BME280;36654;45.042;38.994;2022-10-20T14:40:34;100935.50;;;12.37;62.44
50684;BME280;36654;45.042;38.994;2022-10-20T14:43:15;100937.28;;;12.37;61.89
50684;BME280;36654;45.042;38.994;2022-10-20T14:46:01;100937.25;;;12.30;61.33
50684;BME280;36654;45.042;38.994;2022-10-20T14:48:36;100967.44;;;12.39;61.40
50684;BME280;36654;45.042;38.994;2022-10-20T14:54:34;100976.22;;;12.28;56.63